sensor_id;sensor_type;location;lat;lon;timestamp;P1;durP1;ratioP1;P2;durP2;ratioP2
6864;SDS011;3471;49.678;8.388;2022-10-31T00:00:48;12.73;;;5.93;;
6864;SDS011;3471;49.678;8.388;2022-10-31T00:03:14;9.48;;;5.63;;
6864;SDS011;3471;49.678;8.388;2022-10-31T00:05:42;9.00;;;5.03;;
6864;SDS011;3471;49.678;8.388;2022-10-31T00:08:12;15.47;;;6.57;;
6864;SDS011;3471;49.678;8.388;2022-10-31T00:10:38;8.73;;;6.47;;
6864;SDS011;3471;49.678;8.388;2022-10-31T00:13:04;14.05;;;5.68;;
6864;SDS011;3471;49.678;8.388;2022-10-31T00:15:32;21.38;;;6.95;;
6864;SDS011;3471;49.678;8.388;2022-10-31T00:18:01;5.20;;;4.47;;
6864;SDS011;3471;49.678;8.388;2022-10-31T00:20:27;7.00;;;6.30;;
6864;SDS011;3471;49.678;8.388;2022-10-31T00:22:54;9.88;;;5.70;;
6864;SDS011;3471;49.678;8.388;2022-10-31T00:25:23;12.40;;;7.57;;
6864;SDS011;3471;49.678;8.388;2022-10-31T00:27:48;7.30;;;5.80;;
6864;SDS011;3471;49.678;8.388;2022-10-31T00:30:14;12.47;;;5.83;;
6864;SDS011;3471;49.678;8.388;2022-10-31T00:32:39;7.07;;;5.10;;
6864;SDS011;3471;49.678;8.388;2022-10-31T00:35:05;11.80;;;7.10;;
6864;SDS011;3471;49.678;8.388;2022-10-31T00:37:31;7.72;;;6.57;;
6864;SDS011;3471;49.678;8.388;2022-10-31T00:39:57;10.40;;;7.17;;
6864;SDS011;3471;49.678;8.388;2022-10-31T00:42:22;8.80;;;5.63;;
6864;SDS011;3471;49.678;8.388;2022-10-31T00:44:48;8.90;;;6.47;;
6864;SDS011;3471;49.678;8.388;2022-10-31T00:47:13;10.07;;;6.07;;
6864;SDS011;3471;49.678;8.388;2022-10-31T00:49:39;6.22;;;5.65;;
6864;SDS011;3471;49.678;8.388;2022-10-31T00:52:04;5.28;;;4.78;;
6864;SDS011;3471;49.678;8.388;2022-10-31T00:54:30;5.38;;;4.88;;
6864;SDS011;3471;49.678;8.388;2022-10-31T00:56:56;5.83;;;5.27;;
6864;SDS011;3471;49.678;8.388;2022-10-31T00:59:22;5.65;;;5.05;;
6864;SDS011;3471;49.678;8.388;2022-10-31T01:01:47;9.73;;;5.30;;
6864;SDS011;3471;49.678;8.388;2022-10-31T01:04:13;7.43;;;5.60;;
6864;SDS011;3471;49.678;8.388;2022-10-31T01:06:39;6.80;;;4.97;;
6864;SDS011;3471;49.678;8.388;2022-10-31T01:09:04;6.70;;;6.20;;
6864;SDS011;3471;49.678;8.388;2022-10-31T01:11:30;5.70;;;5.10;;
6864;SDS011;3471;49.678;8.388;2022-10-31T01:13:55;5.70;;;5.20;;
6864;SDS011;3471;49.678;8.388;2022-10-31T01:16:22;4.93;;;4.50;;
6864;SDS011;3471;49.678;8.388;2022-10-31T01:18:49;5.97;;;4.57;;
6864;SDS011;3471;49.678;8.388;2022-10-31T01:21:16;7.75;;;4.88;;
6864;SDS011;3471;49.678;8.388;2022-10-31T01:23:46;4.93;;;4.43;;
6864;SDS011;3471;49.678;8.388;2022-10-31T01:26:13;5.80;;;5.30;;
6864;SDS011;3471;49.678;8.388;2022-10-31T01:28:44;5.53;;;5.07;;
6864;SDS011;3471;49.678;8.388;2022-10-31T01:31:15;5.37;;;4.87;;
6864;SDS011;3471;49.678;8.388;2022-10-31T01:33:42;13.88;;;5.50;;
6864;SDS011;3471;49.678;8.388;2022-10-31T01:36:23;8.30;;;5.63;;
6864;SDS011;3471;49.678;8.388;2022-10-31T01:38:50;8.50;;;6.53;;
6864;SDS011;3471;49.678;8.388;2022-10-31T01:41:18;7.07;;;4.87;;
6864;SDS011;3471;49.678;8.388;2022-10-31T01:43:55;8.63;;;6.37;;
6864;SDS011;3471;49.678;8.388;2022-10-31T01:46:33;10.20;;;7.00;;
6864;SDS011;3471;49.678;8.388;2022-10-31T01:49:02;5.07;;;4.53;;
6864;SDS011;3471;49.678;8.388;2022-10-31T01:51:32;5.68;;;5.18;;
6864;SDS011;3471;49.678;8.388;2022-10-31T01:54:01;5.25;;;4.72;;
6864;SDS011;3471;49.678;8.388;2022-10-31T01:56:31;4.30;;;3.90;;
6864;SDS011;3471;49.678;8.388;2022-10-31T01:58:59;5.70;;;4.38;;
6864;SDS011;3471;49.678;8.388;2022-10-31T02:01:26;5.43;;;4.50;;
6864;SDS011;3471;49.678;8.388;2022-10-31T02:03:53;14.48;;;4.65;;
6864;SDS011;3471;49.678;8.388;2022-10-31T02:06:55;4.03;;;3.72;;
6864;SDS011;3471;49.678;8.388;2022-10-31T02:09:15;5.15;;;4.65;;
6864;SDS011;3471;49.678;8.388;2022-10-31T02:11:42;5.80;;;4.80;;
6864;SDS011;3471;49.678;8.388;2022-10-31T02:14:09;7.50;;;4.82;;
6864;SDS011;3471;49.678;8.388;2022-10-31T02:16:35;8.23;;;4.80;;
6864;SDS011;3471;49.678;8.388;2022-10-31T02:19:00;5.00;;;4.50;;
6864;SDS011;3471;49.678;8.388;2022-10-31T02:21:31;5.35;;;4.85;;
6864;SDS011;3471;49.678;8.388;2022-10-31T02:27:08;13.48;;;5.97;;
6864;SDS011;3471;49.678;8.388;2022-10-31T02:32:20;14.75;;;5.05;;
6864;SDS011;3471;49.678;8.388;2022-10-31T02:34:57;5.95;;;5.03;;
6864;SDS011;3471;49.678;8.388;2022-10-31T02:37:41;5.05;;;4.43;;
6864;SDS011;3471;49.678;8.388;2022-10-31T02:40:29;5.57;;;4.88;;
6864;SDS011;3471;49.678;8.388;2022-10-31T02:45:30;6.10;;;4.50;;
6864;SDS011;3471;49.678;8.388;2022-10-31T02:48:14;6.18;;;5.35;;
6864;SDS011;3471;49.678;8.388;2022-10-31T02:50:47;10.40;;;4.33;;
6864;SDS011;3471;49.678;8.388;2022-10-31T02:53:20;5.10;;;4.70;;
6864;SDS011;3471;49.678;8.388;2022-10-31T02:55:50;5.65;;;5.05;;
6864;SDS011;3471;49.678;8.388;2022-10-31T02:58:21;6.25;;;4.45;;
6864;SDS011;3471;49.678;8.388;2022-10-31T03:09:53;7.85;;;5.05;;
6864;SDS011;3471;49.678;8.388;2022-10-31T03:12:30;6.05;;;5.45;;
6864;SDS011;3471;49.678;8.388;2022-10-31T03:15:14;13.32;;;5.38;;
6864;SDS011;3471;49.678;8.388;2022-10-31T03:17:51;7.93;;;5.60;;
6864;SDS011;3471;49.678;8.388;2022-10-31T03:20:20;6.30;;;5.80;;
6864;SDS011;3471;49.678;8.388;2022-10-31T03:22:51;7.37;;;6.20;;
6864;SDS011;3471;49.678;8.388;2022-10-31T03:25:19;8.15;;;5.60;;
6864;SDS011;3471;49.678;8.388;2022-10-31T03:27:44;9.17;;;7.00;;
6864;SDS011;3471;49.678;8.388;2022-10-31T03:30:12;6.07;;;5.50;;
6864;SDS011;3471;49.678;8.388;2022-10-31T03:32:51;22.48;;;7.45;;
6864;SDS011;3471;49.678;8.388;2022-10-31T03:35:20;6.07;;;5.28;;
6864;SDS011;3471;49.678;8.388;2022-10-31T03:37:49;5.55;;;4.75;;
6864;SDS011;3471;49.678;8.388;2022-10-31T03:40:18;11.50;;;7.00;;
6864;SDS011;3471;49.678;8.388;2022-10-31T03:42:53;11.55;;;7.70;;
6864;SDS011;3471;49.678;8.388;2022-10-31T03:45:23;6.07;;;5.30;;
6864;SDS011;3471;49.678;8.388;2022-10-31T03:47:51;7.25;;;6.30;;
6864;SDS011;3471;49.678;8.388;2022-10-31T03:50:18;5.22;;;4.72;;
6864;SDS011;3471;49.678;8.388;2022-10-31T03:55:21;6.30;;;5.43;;
6864;SDS011;3471;49.678;8.388;2022-10-31T03:57:55;5.55;;;4.95;;
6864;SDS011;3471;49.678;8.388;2022-10-31T04:00:28;7.95;;;5.82;;
6864;SDS011;3471;49.678;8.388;2022-10-31T04:05:34;9.70;;;6.60;;
6864;SDS011;3471;49.678;8.388;2022-10-31T04:08:02;10.55;;;5.88;;
6864;SDS011;3471;49.678;8.388;2022-10-31T04:10:32;8.75;;;5.55;;
6864;SDS011;3471;49.678;8.388;2022-10-31T04:13:01;5.57;;;5.00;;
6864;SDS011;3471;49.678;8.388;2022-10-31T04:15:30;5.60;;;5.07;;
6864;SDS011;3471;49.678;8.388;2022-10-31T04:17:58;5.10;;;4.60;;
6864;SDS011;3471;49.678;8.388;2022-10-31T04:20:37;5.40;;;4.00;;
6864;SDS011;3471;49.678;8.388;2022-10-31T04:23:05;7.07;;;5.05;;
6864;SDS011;3471;49.678;8.388;2022-10-31T04:25:43;5.88;;;4.65;;
6864;SDS011;3471;49.678;8.388;2022-10-31T04:28:08;4.90;;;4.40;;
6864;SDS011;3471;49.678;8.388;2022-10-31T04:30:34;10.55;;;4.95;;
6864;SDS011;3471;49.678;8.388;2022-10-31T04:32:59;5.72;;;5.20;;
6864;SDS011;3471;49.678;8.388;2022-10-31T04:35:25;5.25;;;4.50;;
6864;SDS011;3471;49.678;8.388;2022-10-31T04:37:50;5.00;;;3.70;;
6864;SDS011;3471;49.678;8.388;2022-10-31T04:40:16;5.60;;;5.10;;
6864;SDS011;3471;49.678;8.388;2022-10-31T04:42:41;5.03;;;4.53;;
6864;SDS011;3471;49.678;8.388;2022-10-31T04:45:07;5.60;;;4.57;;
6864;SDS011;3471;49.678;8.388;2022-10-31T04:47:33;6.90;;;4.97;;
6864;SDS011;3471;49.678;8.388;2022-10-31T04:49:59;19.50;;;6.20;;
6864;SDS011;3471;49.678;8.388;2022-10-31T04:52:25;14.13;;;7.18;;
6864;SDS011;3471;49.678;8.388;2022-10-31T04:54:50;7.70;;;6.70;;
6864;SDS011;3471;49.678;8.388;2022-10-31T04:57:16;6.60;;;5.20;;
6864;SDS011;3471;49.678;8.388;2022-10-31T04:59:41;7.00;;;6.30;;
6864;SDS011;3471;49.678;8.388;2022-10-31T05:02:07;8.17;;;7.47;;
6864;SDS011;3471;49.678;8.388;2022-10-31T05:04:32;8.40;;;6.88;;
6864;SDS011;3471;49.678;8.388;2022-10-31T05:06:58;12.70;;;6.07;;
6864;SDS011;3471;49.678;8.388;2022-10-31T05:09:23;7.27;;;4.93;;
6864;SDS011;3471;49.678;8.388;2022-10-31T05:11:49;6.47;;;5.87;;
6864;SDS011;3471;49.678;8.388;2022-10-31T05:14:15;13.02;;;8.00;;
6864;SDS011;3471;49.678;8.388;2022-10-31T05:16:40;15.10;;;7.05;;
6864;SDS011;3471;49.678;8.388;2022-10-31T05:19:06;15.35;;;6.32;;
6864;SDS011;3471;49.678;8.388;2022-10-31T05:21:31;5.70;;;5.20;;
6864;SDS011;3471;49.678;8.388;2022-10-31T05:23:57;16.57;;;6.50;;
6864;SDS011;3471;49.678;8.388;2022-10-31T05:26:22;7.03;;;5.77;;
6864;SDS011;3471;49.678;8.388;2022-10-31T05:28:48;10.45;;;6.90;;
6864;SDS011;3471;49.678;8.388;2022-10-31T05:31:14;5.23;;;4.43;;
6864;SDS011;3471;49.678;8.388;2022-10-31T05:33:39;5.47;;;4.37;;
6864;SDS011;3471;49.678;8.388;2022-10-31T05:36:05;8.30;;;6.87;;
6864;SDS011;3471;49.678;8.388;2022-10-31T05:38:30;4.43;;;3.80;;
6864;SDS011;3471;49.678;8.388;2022-10-31T05:40:56;9.68;;;5.07;;
6864;SDS011;3471;49.678;8.388;2022-10-31T05:43:27;6.90;;;5.50;;
6864;SDS011;3471;49.678;8.388;2022-10-31T05:45:56;14.95;;;5.72;;
6864;SDS011;3471;49.678;8.388;2022-10-31T05:48:22;5.03;;;3.70;;
6864;SDS011;3471;49.678;8.388;2022-10-31T05:50:48;6.55;;;5.20;;
6864;SDS011;3471;49.678;8.388;2022-10-31T05:53:14;8.98;;;4.80;;
6864;SDS011;3471;49.678;8.388;2022-10-31T05:55:40;9.50;;;6.17;;
6864;SDS011;3471;49.678;8.388;2022-10-31T05:58:07;7.38;;;4.35;;
6864;SDS011;3471;49.678;8.388;2022-10-31T06:00:32;7.40;;;5.15;;
6864;SDS011;3471;49.678;8.388;2022-10-31T06:03:04;9.20;;;5.13;;
6864;SDS011;3471;49.678;8.388;2022-10-31T06:05:31;9.13;;;4.90;;
6864;SDS011;3471;49.678;8.388;2022-10-31T06:07:57;6.75;;;5.43;;
6864;SDS011;3471;49.678;8.388;2022-10-31T06:10:23;5.72;;;4.88;;
6864;SDS011;3471;49.678;8.388;2022-10-31T06:12:49;6.80;;;3.47;;
6864;SDS011;3471;49.678;8.388;2022-10-31T06:15:15;4.63;;;4.27;;
6864;SDS011;3471;49.678;8.388;2022-10-31T06:17:41;8.27;;;4.07;;
6864;SDS011;3471;49.678;8.388;2022-10-31T06:20:07;8.03;;;4.57;;
6864;SDS011;3471;49.678;8.388;2022-10-31T06:22:33;5.75;;;4.50;;
6864;SDS011;3471;49.678;8.388;2022-10-31T06:24:58;5.30;;;4.73;;
6864;SDS011;3471;49.678;8.388;2022-10-31T06:27:24;11.97;;;6.17;;
6864;SDS011;3471;49.678;8.388;2022-10-31T06:29:50;9.95;;;5.50;;
6864;SDS011;3471;49.678;8.388;2022-10-31T06:32:16;6.07;;;4.53;;
6864;SDS011;3471;49.678;8.388;2022-10-31T06:34:42;8.33;;;4.80;;
6864;SDS011;3471;49.678;8.388;2022-10-31T06:37:09;7.10;;;5.30;;
6864;SDS011;3471;49.678;8.388;2022-10-31T06:39:36;8.50;;;5.28;;
6864;SDS011;3471;49.678;8.388;2022-10-31T06:42:01;9.37;;;5.67;;
6864;SDS011;3471;49.678;8.388;2022-10-31T06:44:27;9.63;;;7.18;;
6864;SDS011;3471;49.678;8.388;2022-10-31T06:46:53;6.70;;;6.10;;
6864;SDS011;3471;49.678;8.388;2022-10-31T06:49:18;8.97;;;5.70;;
6864;SDS011;3471;49.678;8.388;2022-10-31T06:51:46;8.57;;;6.60;;
6864;SDS011;3471;49.678;8.388;2022-10-31T06:54:13;12.68;;;8.98;;
6864;SDS011;3471;49.678;8.388;2022-10-31T06:56:38;10.53;;;7.93;;
6864;SDS011;3471;49.678;8.388;2022-10-31T06:59:04;7.03;;;6.33;;
6864;SDS011;3471;49.678;8.388;2022-10-31T07:01:30;7.47;;;6.75;;
6864;SDS011;3471;49.678;8.388;2022-10-31T07:03:55;8.40;;;7.60;;
6864;SDS011;3471;49.678;8.388;2022-10-31T07:06:21;14.35;;;6.25;;
6864;SDS011;3471;49.678;8.388;2022-10-31T07:08:46;11.90;;;6.83;;
6864;SDS011;3471;49.678;8.388;2022-10-31T07:11:12;9.57;;;6.90;;
6864;SDS011;3471;49.678;8.388;2022-10-31T07:13:38;10.03;;;4.80;;
6864;SDS011;3471;49.678;8.388;2022-10-31T07:16:04;14.23;;;8.20;;
6864;SDS011;3471;49.678;8.388;2022-10-31T07:18:31;12.93;;;7.32;;
6864;SDS011;3471;49.678;8.388;2022-10-31T07:20:57;10.63;;;8.27;;
6864;SDS011;3471;49.678;8.388;2022-10-31T07:23:23;8.90;;;7.13;;
6864;SDS011;3471;49.678;8.388;2022-10-31T07:25:48;7.93;;;5.80;;
6864;SDS011;3471;49.678;8.388;2022-10-31T07:28:22;14.20;;;6.20;;
6864;SDS011;3471;49.678;8.388;2022-10-31T07:30:49;9.73;;;8.13;;
6864;SDS011;3471;49.678;8.388;2022-10-31T07:33:16;11.38;;;6.72;;
6864;SDS011;3471;49.678;8.388;2022-10-31T07:35:41;13.47;;;10.00;;
6864;SDS011;3471;49.678;8.388;2022-10-31T07:38:10;7.30;;;6.23;;
6864;SDS011;3471;49.678;8.388;2022-10-31T07:40:37;17.17;;;7.53;;
6864;SDS011;3471;49.678;8.388;2022-10-31T07:43:03;9.40;;;8.48;;
6864;SDS011;3471;49.678;8.388;2022-10-31T07:45:29;14.00;;;9.50;;
6864;SDS011;3471;49.678;8.388;2022-10-31T07:47:54;10.97;;;8.10;;
6864;SDS011;3471;49.678;8.388;2022-10-31T07:50:30;9.10;;;6.50;;
6864;SDS011;3471;49.678;8.388;2022-10-31T07:55:24;10.65;;;9.55;;
6864;SDS011;3471;49.678;8.388;2022-10-31T07:58:06;14.38;;;8.48;;
6864;SDS011;3471;49.678;8.388;2022-10-31T08:00:34;8.67;;;7.00;;
6864;SDS011;3471;49.678;8.388;2022-10-31T08:03:01;12.05;;;8.13;;
6864;SDS011;3471;49.678;8.388;2022-10-31T08:05:31;22.33;;;10.63;;
6864;SDS011;3471;49.678;8.388;2022-10-31T08:07:57;11.45;;;9.88;;
6864;SDS011;3471;49.678;8.388;2022-10-31T08:10:23;8.73;;;7.63;;
6864;SDS011;3471;49.678;8.388;2022-10-31T08:15:45;9.23;;;8.30;;
6864;SDS011;3471;49.678;8.388;2022-10-31T08:18:15;19.10;;;8.23;;
6864;SDS011;3471;49.678;8.388;2022-10-31T08:20:43;10.95;;;9.80;;
6864;SDS011;3471;49.678;8.388;2022-10-31T08:23:10;11.53;;;7.80;;
6864;SDS011;3471;49.678;8.388;2022-10-31T08:25:36;8.30;;;7.60;;
6864;SDS011;3471;49.678;8.388;2022-10-31T08:28:03;11.50;;;7.60;;
6864;SDS011;3471;49.678;8.388;2022-10-31T08:30:29;19.90;;;7.07;;
6864;SDS011;3471;49.678;8.388;2022-10-31T08:35:38;18.50;;;9.83;;
6864;SDS011;3471;49.678;8.388;2022-10-31T08:38:03;10.85;;;8.43;;
6864;SDS011;3471;49.678;8.388;2022-10-31T08:40:30;15.67;;;12.37;;
6864;SDS011;3471;49.678;8.388;2022-10-31T08:45:25;11.00;;;9.03;;
6864;SDS011;3471;49.678;8.388;2022-10-31T08:47:51;11.18;;;9.23;;
6864;SDS011;3471;49.678;8.388;2022-10-31T08:50:17;13.93;;;8.37;;
6864;SDS011;3471;49.678;8.388;2022-10-31T08:52:43;10.73;;;8.50;;
6864;SDS011;3471;49.678;8.388;2022-10-31T08:55:08;6.95;;;6.35;;
6864;SDS011;3471;49.678;8.388;2022-10-31T08:57:34;20.08;;;7.47;;
6864;SDS011;3471;49.678;8.388;2022-10-31T08:59:59;11.43;;;8.57;;
6864;SDS011;3471;49.678;8.388;2022-10-31T09:02:25;9.10;;;7.70;;
6864;SDS011;3471;49.678;8.388;2022-10-31T09:04:50;19.60;;;8.87;;
6864;SDS011;3471;49.678;8.388;2022-10-31T09:07:16;11.90;;;6.93;;
6864;SDS011;3471;49.678;8.388;2022-10-31T09:09:42;11.68;;;8.80;;
6864;SDS011;3471;49.678;8.388;2022-10-31T09:12:07;11.57;;;8.82;;
6864;SDS011;3471;49.678;8.388;2022-10-31T09:14:33;7.93;;;7.15;;
6864;SDS011;3471;49.678;8.388;2022-10-31T09:16:59;13.23;;;9.23;;
6864;SDS011;3471;49.678;8.388;2022-10-31T09:19:24;16.73;;;7.10;;
6864;SDS011;3471;49.678;8.388;2022-10-31T09:21:53;12.03;;;6.93;;
6864;SDS011;3471;49.678;8.388;2022-10-31T09:24:19;13.50;;;8.30;;
6864;SDS011;3471;49.678;8.388;2022-10-31T09:26:45;9.02;;;7.05;;
6864;SDS011;3471;49.678;8.388;2022-10-31T09:29:10;15.83;;;8.17;;
6864;SDS011;3471;49.678;8.388;2022-10-31T09:31:36;10.80;;;9.20;;
6864;SDS011;3471;49.678;8.388;2022-10-31T09:34:02;11.52;;;9.27;;
6864;SDS011;3471;49.678;8.388;2022-10-31T09:36:27;13.63;;;8.02;;
6864;SDS011;3471;49.678;8.388;2022-10-31T09:38:53;17.92;;;7.15;;
6864;SDS011;3471;49.678;8.388;2022-10-31T09:49:47;18.63;;;9.67;;
6864;SDS011;3471;49.678;8.388;2022-10-31T09:52:24;11.18;;;8.20;;
6864;SDS011;3471;49.678;8.388;2022-10-31T09:55:04;10.95;;;8.00;;
6864;SDS011;3471;49.678;8.388;2022-10-31T09:57:38;20.35;;;8.40;;
6864;SDS011;3471;49.678;8.388;2022-10-31T10:00:06;12.75;;;9.95;;
6864;SDS011;3471;49.678;8.388;2022-10-31T10:02:53;13.13;;;6.72;;
6864;SDS011;3471;49.678;8.388;2022-10-31T10:05:26;13.75;;;8.05;;
6864;SDS011;3471;49.678;8.388;2022-10-31T10:22:50;12.15;;;6.93;;
6864;SDS011;3471;49.678;8.388;2022-10-31T10:25:24;9.90;;;8.88;;
6864;SDS011;3471;49.678;8.388;2022-10-31T10:31:07;16.75;;;7.68;;
6864;SDS011;3471;49.678;8.388;2022-10-31T10:33:47;9.70;;;8.70;;
6864;SDS011;3471;49.678;8.388;2022-10-31T10:41:59;9.18;;;6.38;;
6864;SDS011;3471;49.678;8.388;2022-10-31T10:45:15;13.47;;;7.87;;
6864;SDS011;3471;49.678;8.388;2022-10-31T10:50:41;13.20;;;6.82;;
6864;SDS011;3471;49.678;8.388;2022-10-31T10:58:38;10.90;;;7.63;;
6864;SDS011;3471;49.678;8.388;2022-10-31T11:01:09;14.60;;;6.95;;
6864;SDS011;3471;49.678;8.388;2022-10-31T11:03:40;10.18;;;9.18;;
6864;SDS011;3471;49.678;8.388;2022-10-31T11:06:16;8.97;;;8.07;;
6864;SDS011;3471;49.678;8.388;2022-10-31T11:08:46;15.05;;;7.40;;
6864;SDS011;3471;49.678;8.388;2022-10-31T11:13:51;11.80;;;7.28;;
6864;SDS011;3471;49.678;8.388;2022-10-31T11:19:04;14.93;;;6.60;;
6864;SDS011;3471;49.678;8.388;2022-10-31T11:21:44;10.07;;;7.07;;
6864;SDS011;3471;49.678;8.388;2022-10-31T11:26:37;8.30;;;7.47;;
6864;SDS011;3471;49.678;8.388;2022-10-31T11:29:04;10.32;;;7.63;;
6864;SDS011;3471;49.678;8.388;2022-10-31T11:31:30;13.40;;;7.22;;
6864;SDS011;3471;49.678;8.388;2022-10-31T11:34:00;10.85;;;7.45;;
6864;SDS011;3471;49.678;8.388;2022-10-31T11:36:31;11.70;;;8.38;;
6864;SDS011;3471;49.678;8.388;2022-10-31T11:39:03;9.30;;;8.32;;
6864;SDS011;3471;49.678;8.388;2022-10-31T11:41:37;11.50;;;7.55;;
6864;SDS011;3471;49.678;8.388;2022-10-31T11:44:04;21.45;;;7.47;;
6864;SDS011;3471;49.678;8.388;2022-10-31T11:46:40;8.10;;;7.10;;
6864;SDS011;3471;49.678;8.388;2022-10-31T11:49:19;9.00;;;8.10;;
6864;SDS011;3471;49.678;8.388;2022-10-31T11:51:58;9.50;;;7.75;;
6864;SDS011;3471;49.678;8.388;2022-10-31T11:54:27;9.13;;;7.70;;
6864;SDS011;3471;49.678;8.388;2022-10-31T11:56:59;6.72;;;5.97;;
6864;SDS011;3471;49.678;8.388;2022-10-31T11:59:26;16.88;;;7.50;;
6864;SDS011;3471;49.678;8.388;2022-10-31T12:01:54;12.27;;;7.97;;
6864;SDS011;3471;49.678;8.388;2022-10-31T12:04:27;13.13;;;7.32;;
6864;SDS011;3471;49.678;8.388;2022-10-31T12:06:56;18.02;;;8.10;;
6864;SDS011;3471;49.678;8.388;2022-10-31T12:09:23;9.73;;;7.55;;
6864;SDS011;3471;49.678;8.388;2022-10-31T12:12:05;9.23;;;7.43;;
6864;SDS011;3471;49.678;8.388;2022-10-31T12:23:23;24.80;;;8.85;;
6864;SDS011;3471;49.678;8.388;2022-10-31T12:26:08;18.55;;;6.78;;
6864;SDS011;3471;49.678;8.388;2022-10-31T12:37:03;9.05;;;6.70;;
6864;SDS011;3471;49.678;8.388;2022-10-31T12:39:55;7.70;;;6.85;;
6864;SDS011;3471;49.678;8.388;2022-10-31T13:02:04;8.63;;;4.90;;
6864;SDS011;3471;49.678;8.388;2022-10-31T13:07:05;8.10;;;6.07;;
6864;SDS011;3471;49.678;8.388;2022-10-31T13:09:37;10.98;;;6.28;;
6864;SDS011;3471;49.678;8.388;2022-10-31T13:12:08;9.45;;;7.38;;
6864;SDS011;3471;49.678;8.388;2022-10-31T13:14:40;16.58;;;5.03;;
6864;SDS011;3471;49.678;8.388;2022-10-31T13:17:23;20.25;;;6.60;;
6864;SDS011;3471;49.678;8.388;2022-10-31T13:20:20;16.33;;;6.38;;
6864;SDS011;3471;49.678;8.388;2022-10-31T13:23:38;10.25;;;7.65;;
6864;SDS011;3471;49.678;8.388;2022-10-31T13:25:50;36.40;;;8.90;;
6864;SDS011;3471;49.678;8.388;2022-10-31T13:28:34;7.53;;;6.82;;
6864;SDS011;3471;49.678;8.388;2022-10-31T13:31:12;7.50;;;6.90;;
6864;SDS011;3471;49.678;8.388;2022-10-31T13:42:12;7.55;;;6.53;;
6864;SDS011;3471;49.678;8.388;2022-10-31T13:44:47;9.48;;;7.50;;
6864;SDS011;3471;49.678;8.388;2022-10-31T13:47:28;8.20;;;5.40;;
6864;SDS011;3471;49.678;8.388;2022-10-31T13:50:18;12.40;;;6.20;;
6864;SDS011;3471;49.678;8.388;2022-10-31T13:52:52;8.45;;;5.45;;
6864;SDS011;3471;49.678;8.388;2022-10-31T13:55:42;12.68;;;6.80;;
6864;SDS011;3471;49.678;8.388;2022-10-31T14:00:58;27.85;;;5.82;;
6864;SDS011;3471;49.678;8.388;2022-10-31T14:03:38;12.95;;;5.70;;
6864;SDS011;3471;49.678;8.388;2022-10-31T14:06:06;11.53;;;5.40;;
6864;SDS011;3471;49.678;8.388;2022-10-31T14:08:34;10.18;;;6.55;;
6864;SDS011;3471;49.678;8.388;2022-10-31T14:11:04;6.50;;;4.70;;
6864;SDS011;3471;49.678;8.388;2022-10-31T14:13:34;5.03;;;4.50;;
6864;SDS011;3471;49.678;8.388;2022-10-31T14:18:30;6.18;;;5.13;;
6864;SDS011;3471;49.678;8.388;2022-10-31T14:20:58;18.40;;;5.78;;
6864;SDS011;3471;49.678;8.388;2022-10-31T14:26:16;20.50;;;6.60;;
6864;SDS011;3471;49.678;8.388;2022-10-31T14:28:51;10.65;;;3.88;;
6864;SDS011;3471;49.678;8.388;2022-10-31T14:34:06;15.55;;;7.25;;
6864;SDS011;3471;49.678;8.388;2022-10-31T14:42:40;5.15;;;4.45;;
6864;SDS011;3471;49.678;8.388;2022-10-31T14:48:10;16.02;;;4.43;;
6864;SDS011;3471;49.678;8.388;2022-10-31T14:53:24;8.43;;;5.95;;
6864;SDS011;3471;49.678;8.388;2022-10-31T14:55:54;10.93;;;6.25;;
6864;SDS011;3471;49.678;8.388;2022-10-31T15:00:56;6.13;;;5.18;;
6864;SDS011;3471;49.678;8.388;2022-10-31T15:05:59;5.00;;;4.50;;
6864;SDS011;3471;49.678;8.388;2022-10-31T15:08:38;7.43;;;4.95;;
6864;SDS011;3471;49.678;8.388;2022-10-31T15:11:16;14.88;;;6.55;;
6864;SDS011;3471;49.678;8.388;2022-10-31T15:16:10;8.55;;;5.90;;
6864;SDS011;3471;49.678;8.388;2022-10-31T15:18:39;13.98;;;5.43;;
6864;SDS011;3471;49.678;8.388;2022-10-31T15:21:21;12.40;;;6.63;;
6864;SDS011;3471;49.678;8.388;2022-10-31T15:23:49;6.93;;;5.88;;
6864;SDS011;3471;49.678;8.388;2022-10-31T15:26:18;8.70;;;6.78;;
6864;SDS011;3471;49.678;8.388;2022-10-31T15:28:46;7.18;;;5.25;;
6864;SDS011;3471;49.678;8.388;2022-10-31T15:31:23;19.83;;;6.40;;
6864;SDS011;3471;49.678;8.388;2022-10-31T15:33:48;7.83;;;7.13;;
6864;SDS011;3471;49.678;8.388;2022-10-31T15:36:20;18.75;;;6.57;;
6864;SDS011;3471;49.678;8.388;2022-10-31T15:38:47;10.37;;;5.70;;
6864;SDS011;3471;49.678;8.388;2022-10-31T15:43:53;9.10;;;6.55;;
6864;SDS011;3471;49.678;8.388;2022-10-31T15:46:20;15.35;;;6.60;;
6864;SDS011;3471;49.678;8.388;2022-10-31T15:48:46;12.30;;;6.80;;
6864;SDS011;3471;49.678;8.388;2022-10-31T15:51:12;11.25;;;6.05;;
6864;SDS011;3471;49.678;8.388;2022-10-31T15:53:47;18.60;;;6.60;;
6864;SDS011;3471;49.678;8.388;2022-10-31T15:56:21;13.43;;;6.03;;
6864;SDS011;3471;49.678;8.388;2022-10-31T15:58:53;11.90;;;7.15;;
6864;SDS011;3471;49.678;8.388;2022-10-31T16:01:20;14.73;;;6.75;;
6864;SDS011;3471;49.678;8.388;2022-10-31T16:03:58;25.77;;;8.80;;
6864;SDS011;3471;49.678;8.388;2022-10-31T16:06:36;10.00;;;6.47;;
6864;SDS011;3471;49.678;8.388;2022-10-31T16:09:02;12.10;;;6.90;;
6864;SDS011;3471;49.678;8.388;2022-10-31T16:11:33;7.60;;;5.72;;
6864;SDS011;3471;49.678;8.388;2022-10-31T16:14:15;12.93;;;6.70;;
6864;SDS011;3471;49.678;8.388;2022-10-31T16:16:51;7.78;;;6.78;;
6864;SDS011;3471;49.678;8.388;2022-10-31T16:19:21;11.40;;;6.03;;
6864;SDS011;3471;49.678;8.388;2022-10-31T16:21:54;13.07;;;8.23;;
6864;SDS011;3471;49.678;8.388;2022-10-31T16:24:31;16.17;;;6.70;;
6864;SDS011;3471;49.678;8.388;2022-10-31T16:27:06;12.35;;;4.65;;
6864;SDS011;3471;49.678;8.388;2022-10-31T16:29:45;17.90;;;6.30;;
6864;SDS011;3471;49.678;8.388;2022-10-31T16:37:36;13.70;;;7.43;;
6864;SDS011;3471;49.678;8.388;2022-10-31T16:40:02;16.30;;;6.18;;
6864;SDS011;3471;49.678;8.388;2022-10-31T16:42:28;20.90;;;7.07;;
6864;SDS011;3471;49.678;8.388;2022-10-31T16:44:54;10.03;;;7.03;;
6864;SDS011;3471;49.678;8.388;2022-10-31T16:47:19;12.23;;;7.03;;
6864;SDS011;3471;49.678;8.388;2022-10-31T16:49:47;20.20;;;6.90;;
6864;SDS011;3471;49.678;8.388;2022-10-31T16:52:14;8.02;;;6.78;;
6864;SDS011;3471;49.678;8.388;2022-10-31T16:54:40;9.35;;;7.70;;
6864;SDS011;3471;49.678;8.388;2022-10-31T16:57:06;21.13;;;7.03;;
6864;SDS011;3471;49.678;8.388;2022-10-31T16:59:39;15.77;;;8.55;;
6864;SDS011;3471;49.678;8.388;2022-10-31T17:02:06;9.90;;;6.37;;
6864;SDS011;3471;49.678;8.388;2022-10-31T17:04:38;7.00;;;5.75;;
6864;SDS011;3471;49.678;8.388;2022-10-31T17:07:04;11.85;;;7.53;;
6864;SDS011;3471;49.678;8.388;2022-10-31T17:09:29;6.47;;;4.80;;
6864;SDS011;3471;49.678;8.388;2022-10-31T17:11:55;6.88;;;5.80;;
6864;SDS011;3471;49.678;8.388;2022-10-31T17:14:20;12.38;;;8.30;;
6864;SDS011;3471;49.678;8.388;2022-10-31T17:16:46;10.80;;;8.53;;
6864;SDS011;3471;49.678;8.388;2022-10-31T17:19:12;10.70;;;7.50;;
6864;SDS011;3471;49.678;8.388;2022-10-31T17:21:37;10.90;;;8.40;;
6864;SDS011;3471;49.678;8.388;2022-10-31T17:24:03;9.00;;;8.10;;
6864;SDS011;3471;49.678;8.388;2022-10-31T17:26:30;13.18;;;6.60;;
6864;SDS011;3471;49.678;8.388;2022-10-31T17:28:55;20.77;;;7.40;;
6864;SDS011;3471;49.678;8.388;2022-10-31T17:31:22;9.60;;;7.63;;
6864;SDS011;3471;49.678;8.388;2022-10-31T17:33:53;8.32;;;6.97;;
6864;SDS011;3471;49.678;8.388;2022-10-31T17:36:20;10.38;;;7.25;;
6864;SDS011;3471;49.678;8.388;2022-10-31T17:38:45;11.32;;;8.45;;
6864;SDS011;3471;49.678;8.388;2022-10-31T17:41:11;12.40;;;6.13;;
6864;SDS011;3471;49.678;8.388;2022-10-31T17:43:36;5.97;;;5.40;;
6864;SDS011;3471;49.678;8.388;2022-10-31T17:46:02;9.53;;;8.57;;
6864;SDS011;3471;49.678;8.388;2022-10-31T17:48:28;11.23;;;8.53;;
6864;SDS011;3471;49.678;8.388;2022-10-31T17:50:53;9.88;;;7.95;;
6864;SDS011;3471;49.678;8.388;2022-10-31T17:53:19;15.40;;;9.23;;
6864;SDS011;3471;49.678;8.388;2022-10-31T17:55:45;11.00;;;9.17;;
6864;SDS011;3471;49.678;8.388;2022-10-31T17:58:10;8.80;;;7.10;;
6864;SDS011;3471;49.678;8.388;2022-10-31T18:00:37;30.05;;;8.57;;
6864;SDS011;3471;49.678;8.388;2022-10-31T18:03:04;12.80;;;7.00;;
6864;SDS011;3471;49.678;8.388;2022-10-31T18:05:31;8.77;;;7.18;;
6864;SDS011;3471;49.678;8.388;2022-10-31T18:07:56;8.00;;;7.20;;